Time;durP1;ratioP1;P1;durP2;ratioP2;P2;SDS_P1;SDS_P2;PMS_P1;PMS_P2;Temp;Humidity;BMP_temperature;BMP_pressure;BME280_temperature;BME280_humidity;BME280_pressure;Samples;Min_cycle;Max_cycle;Signal;HPM_P1;HPM_P2
2023/10/08 00:00:47;;;;;;;2.50;2.30;;;;;;;;;;5064088;28;20199;-65
2023/10/08 00:03:14;;;;;;;4.22;2.60;;;;;;;;;;5063274;28;20222;-66
2023/10/08 00:05:42;;;;;;;4.00;2.90;;;;;;;;;;5067634;28;20202;-65
2023/10/08 00:08:10;;;;;;;2.95;2.60;;;;;;;;;;5068968;28;20202;-65
2023/10/08 00:10:37;;;;;;;2.90;2.65;;;;;;;;;;5068846;28;20249;-65
2023/10/08 00:13:07;;;;;;;3.50;2.58;;;;;;;;;;5069172;28;20916;-65
2023/10/08 00:15:36;;;;;;;6.35;2.85;;;;;;;;;;5069002;28;20672;-65
2023/10/08 00:18:07;;;;;;;3.83;2.90;;;;;;;;;;5068714;28;20206;-65
2023/10/08 00:20:42;;;;;;;3.60;3.03;;;;;;;;;;5068611;28;20663;-66
2023/10/08 00:23:10;;;;;;;4.72;3.17;;;;;;;;;;5068764;28;20594;-66
2023/10/08 00:25:40;;;;;;;5.47;3.00;;;;;;;;;;5069140;28;20490;-65
2023/10/08 00:28:10;;;;;;;4.45;2.75;;;;;;;;;;5068700;28;20214;-66
2023/10/08 00:30:38;;;;;;;3.30;2.90;;;;;;;;;;5068241;28;20630;-65
2023/10/08 00:33:08;;;;;;;3.53;3.22;;;;;;;;;;5067876;28;20207;-65
2023/10/08 00:35:38;;;;;;;6.13;3.25;;;;;;;;;;5068550;28;20207;-66
2023/10/08 00:38:14;;;;;;;3.75;2.47;;;;;;;;;;5067947;28;20241;-65
2023/10/08 00:40:45;;;;;;;6.55;2.65;;;;;;;;;;5057148;28;20207;-66
2023/10/08 00:43:12;;;;;;;4.80;2.70;;;;;;;;;;5067002;28;20230;-66
2023/10/08 00:45:43;;;;;;;2.63;2.42;;;;;;;;;;5058753;28;20227;-66
2023/10/08 00:48:16;;;;;;;3.55;3.17;;;;;;;;;;5068348;28;20254;-65
2023/10/08 00:50:43;;;;;;;7.15;3.45;;;;;;;;;;5067321;28;20195;-65
2023/10/08 00:53:17;;;;;;;6.07;3.00;;;;;;;;;;5067317;28;20207;-65
2023/10/08 00:55:52;;;;;;;2.90;2.67;;;;;;;;;;5063500;28;20737;-65
2023/10/08 00:58:24;;;;;;;3.72;2.72;;;;;;;;;;5064838;28;20222;-65
2023/10/08 01:00:52;;;;;;;11.30;2.70;;;;;;;;;;5067386;28;20909;-65
2023/10/08 01:03:21;;;;;;;4.38;3.20;;;;;;;;;;5067887;28;20232;-65
2023/10/08 01:05:48;;;;;;;6.43;2.90;;;;;;;;;;5068159;28;20218;-65
2023/10/08 01:08:22;;;;;;;8.30;2.80;;;;;;;;;;5068295;28;20207;-65
2023/10/08 01:10:58;;;;;;;2.88;2.53;;;;;;;;;;5068141;28;20573;-65
2023/10/08 01:13:26;;;;;;;6.32;2.70;;;;;;;;;;5068189;28;20207;-65
2023/10/08 01:15:55;;;;;;;2.50;2.30;;;;;;;;;;5067632;28;20286;-65
2023/10/08 01:18:31;;;;;;;7.15;3.00;;;;;;;;;;5068377;28;20881;-65
2023/10/08 01:21:08;;;;;;;4.45;2.90;;;;;;;;;;5068099;28;20305;-65
2023/10/08 01:23:38;;;;;;;3.00;2.80;;;;;;;;;;5068064;28;20928;-66
2023/10/08 01:26:10;;;;;;;3.20;2.70;;;;;;;;;;5066881;28;20734;-65
2023/10/08 01:28:38;;;;;;;6.57;2.75;;;;;;;;;;5068027;28;20288;-64
2023/10/08 01:31:06;;;;;;;4.28;2.67;;;;;;;;;;5067485;28;20203;-64
2023/10/08 01:33:37;;;;;;;2.88;2.60;;;;;;;;;;5067367;28;20195;-64
2023/10/08 01:36:08;;;;;;;5.07;3.08;;;;;;;;;;5066958;28;20199;-64
2023/10/08 01:38:36;;;;;;;6.60;2.55;;;;;;;;;;5067454;28;20230;-63
2023/10/08 01:41:10;;;;;;;4.95;2.90;;;;;;;;;;5067888;28;20207;-63
2023/10/08 01:43:38;;;;;;;4.22;2.90;;;;;;;;;;5066840;28;20223;-64
2023/10/08 01:46:11;;;;;;;3.03;2.80;;;;;;;;;;5067081;28;20231;-64
2023/10/08 01:48:39;;;;;;;6.43;2.92;;;;;;;;;;5067156;28;20575;-63
2023/10/08 01:51:11;;;;;;;4.82;2.75;;;;;;;;;;5067465;28;20679;-64
2023/10/08 01:53:40;;;;;;;8.38;3.25;;;;;;;;;;5065903;28;20214;-64
2023/10/08 01:56:07;;;;;;;3.08;2.70;;;;;;;;;;5067177;28;20280;-64
2023/10/08 01:58:34;;;;;;;3.15;2.58;;;;;;;;;;5067239;28;20311;-64
2023/10/08 02:01:01;;;;;;;4.28;2.72;;;;;;;;;;5067291;28;20198;-64
2023/10/08 02:03:28;;;;;;;4.38;3.00;;;;;;;;;;5066752;28;20234;-64
2023/10/08 02:05:59;;;;;;;4.88;2.78;;;;;;;;;;5066841;28;20211;-64
2023/10/08 02:08:27;;;;;;;3.30;2.90;;;;;;;;;;5058828;28;20211;-65
2023/10/08 02:10:56;;;;;;;5.65;3.05;;;;;;;;;;5066872;28;20230;-64
2023/10/08 02:13:23;;;;;;;6.82;2.70;;;;;;;;;;5067340;28;20277;-65
2023/10/08 02:15:51;;;;;;;2.72;2.53;;;;;;;;;;5066837;28;20199;-64
2023/10/08 02:18:18;;;;;;;4.05;2.72;;;;;;;;;;5063382;28;20231;-64
2023/10/08 02:20:45;;;;;;;4.25;2.92;;;;;;;;;;5066345;28;20203;-64
2023/10/08 02:23:12;;;;;;;2.45;2.33;;;;;;;;;;5067089;28;20226;-64
2023/10/08 02:25:40;;;;;;;3.00;2.65;;;;;;;;;;5066918;28;20198;-64
2023/10/08 02:28:09;;;;;;;7.88;3.03;;;;;;;;;;5066480;28;20257;-64
2023/10/08 02:30:38;;;;;;;3.95;3.25;;;;;;;;;;5066610;28;20210;-64
2023/10/08 02:33:13;;;;;;;4.80;2.42;;;;;;;;;;5066083;28;20571;-64
2023/10/08 02:35:42;;;;;;;4.55;2.75;;;;;;;;;;5065980;28;20822;-64
2023/10/08 02:38:09;;;;;;;3.10;2.90;;;;;;;;;;5065165;28;20202;-64
2023/10/08 02:40:44;;;;;;;3.63;3.10;;;;;;;;;;5066494;28;20277;-64
2023/10/08 02:43:14;;;;;;;5.22;3.20;;;;;;;;;;5066206;28;20234;-64
2023/10/08 02:45:41;;;;;;;4.00;2.90;;;;;;;;;;5066292;28;20235;-64
2023/10/08 02:48:11;;;;;;;5.00;3.38;;;;;;;;;;5066263;28;20215;-65
2023/10/08 02:50:40;;;;;;;3.75;2.88;;;;;;;;;;5066260;28;20230;-64
2023/10/08 02:53:10;;;;;;;3.97;2.92;;;;;;;;;;5066624;28;20229;-64
2023/10/08 02:55:42;;;;;;;4.00;2.90;;;;;;;;;;5066248;28;20203;-64
2023/10/08 02:58:14;;;;;;;5.25;3.17;;;;;;;;;;5065550;28;20215;-64
2023/10/08 03:00:42;;;;;;;5.05;2.90;;;;;;;;;;5065235;28;20234;-65
2023/10/08 03:03:15;;;;;;;3.13;2.92;;;;;;;;;;5065458;28;20717;-64
2023/10/08 03:05:43;;;;;;;2.72;2.63;;;;;;;;;;5065111;28;20199;-64
2023/10/08 03:08:11;;;;;;;4.03;2.97;;;;;;;;;;5064834;28;20215;-64
2023/10/08 03:10:39;;;;;;;3.90;2.67;;;;;;;;;;5065706;28;20478;-64
2023/10/08 03:13:09;;;;;;;6.57;3.05;;;;;;;;;;5065369;28;20198;-64
2023/10/08 03:15:40;;;;;;;4.10;2.80;;;;;;;;;;5065610;28;20275;-64
2023/10/08 03:18:14;;;;;;;5.05;3.10;;;;;;;;;;5066109;28;20300;-63
2023/10/08 03:20:44;;;;;;;5.28;2.65;;;;;;;;;;5065162;28;20234;-65
2023/10/08 03:23:23;;;;;;;3.92;2.65;;;;;;;;;;5064149;28;20223;-64
2023/10/08 03:25:57;;;;;;;3.63;3.10;;;;;;;;;;5064427;28;20698;-63
2023/10/08 03:28:27;;;;;;;4.68;3.22;;;;;;;;;;5066258;28;20231;-63
2023/10/08 03:31:02;;;;;;;4.15;3.38;;;;;;;;;;5066967;28;20211;-63
2023/10/08 03:33:34;;;;;;;2.90;2.60;;;;;;;;;;5065961;28;20203;-63
2023/10/08 03:36:08;;;;;;;3.75;3.00;;;;;;;;;;5066433;28;20206;-64
2023/10/08 03:38:44;;;;;;;3.72;3.25;;;;;;;;;;5065870;28;20206;-64
2023/10/08 03:41:16;;;;;;;4.40;3.03;;;;;;;;;;5066477;28;20313;-64
2023/10/08 03:43:52;;;;;;;4.13;2.90;;;;;;;;;;5065396;28;20222;-64
2023/10/08 03:46:21;;;;;;;4.72;3.65;;;;;;;;;;5065813;28;20287;-63
2023/10/08 03:48:51;;;;;;;3.25;3.05;;;;;;;;;;5066115;28;20235;-64
2023/10/08 03:51:20;;;;;;;7.53;3.45;;;;;;;;;;5065927;28;20203;-64
2023/10/08 03:53:58;;;;;;;3.60;3.30;;;;;;;;;;5065894;28;20604;-64
2023/10/08 03:56:26;;;;;;;5.40;3.30;;;;;;;;;;5065735;28;20326;-64
2023/10/08 03:58:54;;;;;;;4.28;3.38;;;;;;;;;;5065831;28;20199;-64
2023/10/08 04:01:24;;;;;;;7.82;3.00;;;;;;;;;;5065770;28;20256;-64
2023/10/08 04:04:01;;;;;;;3.80;3.22;;;;;;;;;;5065361;28;20604;-64
2023/10/08 04:06:37;;;;;;;9.20;3.65;;;;;;;;;;5065233;28;20214;-63
2023/10/08 04:09:16;;;;;;;4.85;3.08;;;;;;;;;;5054395;28;20708;-64
2023/10/08 04:11:53;;;;;;;6.40;3.40;;;;;;;;;;5066345;28;20665;-64
2023/10/08 04:14:21;;;;;;;4.05;3.20;;;;;;;;;;5065161;28;20221;-64
2023/10/08 04:16:51;;;;;;;3.53;3.22;;;;;;;;;;5065893;28;20210;-65
2023/10/08 04:19:21;;;;;;;4.47;3.13;;;;;;;;;;5064690;28;20218;-64
2023/10/08 04:21:53;;;;;;;7.63;3.75;;;;;;;;;;5062401;28;20203;-64
2023/10/08 04:24:27;;;;;;;5.03;3.05;;;;;;;;;;5065870;28;20231;-64
2023/10/08 04:26:56;;;;;;;7.28;3.35;;;;;;;;;;5065441;28;20294;-64
2023/10/08 04:29:23;;;;;;;3.40;3.15;;;;;;;;;;5065645;28;20650;-64
2023/10/08 04:32:00;;;;;;;4.13;3.25;;;;;;;;;;5065668;28;20289;-64
2023/10/08 04:34:29;;;;;;;4.97;3.20;;;;;;;;;;5065668;28;20194;-64
2023/10/08 04:37:00;;;;;;;5.32;2.75;;;;;;;;;;5065410;28;20199;-64
2023/10/08 04:39:32;;;;;;;5.43;3.15;;;;;;;;;;5065396;28;20203;-64
2023/10/08 04:42:05;;;;;;;7.53;3.20;;;;;;;;;;5065196;28;20235;-63
2023/10/08 04:44:33;;;;;;;3.30;2.95;;;;;;;;;;5058568;28;20224;-64
2023/10/08 04:47:05;;;;;;;4.93;3.20;;;;;;;;;;5065609;28;20281;-64
2023/10/08 04:49:37;;;;;;;5.03;3.45;;;;;;;;;;5064487;28;20209;-64
2023/10/08 04:52:09;;;;;;;4.82;2.92;;;;;;;;;;5055925;28;20226;-64
2023/10/08 04:54:40;;;;;;;2.92;2.72;;;;;;;;;;5069188;28;20203;-64
2023/10/08 04:57:07;;;;;;;2.83;2.63;;;;;;;;;;5068846;28;20222;-64
2023/10/08 04:59:34;;;;;;;4.93;3.08;;;;;;;;;;5068967;28;20203;-64
2023/10/08 05:02:19;;;;;;;15.57;3.63;;;;;;;;;;5068888;28;20215;-64
2023/10/08 05:04:58;;;;;;;8.60;3.33;;;;;;;;;;5067921;28;20230;-63
2023/10/08 05:08:00;;;;;;;4.65;2.95;;;;;;;;;;5068378;28;20218;-64
2023/10/08 05:10:56;;;;;;;4.82;3.80;;;;;;;;;;5068479;28;20549;-65
2023/10/08 05:13:30;;;;;;;10.02;3.40;;;;;;;;;;5069033;28;20199;-64
2023/10/08 05:16:11;;;;;;;3.97;3.13;;;;;;;;;;5068814;28;20241;-64
2023/10/08 05:21:40;;;;;;;6.28;3.40;;;;;;;;;;5053616;28;20198;-64
2023/10/08 05:24:13;;;;;;;3.13;2.70;;;;;;;;;;5069222;28;20222;-64
2023/10/08 05:26:45;;;;;;;4.28;2.90;;;;;;;;;;5068900;28;20207;-64
2023/10/08 05:29:51;;;;;;;3.47;3.17;;;;;;;;;;5069320;28;20260;-65
2023/10/08 05:32:38;;;;;;;3.90;2.83;;;;;;;;;;5068928;28;20706;-63
2023/10/08 05:37:52;;;;;;;2.92;2.60;;;;;;;;;;5067488;28;20207;-64
2023/10/08 05:40:53;;;;;;;4.07;2.90;;;;;;;;;;5067634;28;20669;-64
2023/10/08 05:43:22;;;;;;;3.92;2.75;;;;;;;;;;5067725;28;20806;-65
2023/10/08 05:46:19;;;;;;;4.18;2.70;;;;;;;;;;5068295;28;20238;-65
2023/10/08 05:48:45;;;;;;;2.75;2.55;;;;;;;;;;5068093;28;20752;-65
2023/10/08 05:51:23;;;;;;;3.67;3.13;;;;;;;;;;5065999;28;20207;-64
2023/10/08 05:53:55;;;;;;;6.63;2.88;;;;;;;;;;5067313;28;20305;-65
2023/10/08 05:56:40;;;;;;;3.92;2.97;;;;;;;;;;5067618;28;20223;-65
2023/10/08 05:59:14;;;;;;;3.40;3.03;;;;;;;;;;5064478;28;20196;-65
2023/10/08 06:01:45;;;;;;;5.13;3.20;;;;;;;;;;5061562;28;20201;-70
2023/10/08 06:04:42;;;;;;;3.47;3.05;;;;;;;;;;5067849;28;20227;-67
2023/10/08 06:07:12;;;;;;;4.22;3.40;;;;;;;;;;5062976;28;20225;-66
2023/10/08 06:09:50;;;;;;;5.30;3.33;;;;;;;;;;5064827;28;20661;-66
2023/10/08 06:12:29;;;;;;;3.50;3.20;;;;;;;;;;5057486;28;20293;-66
2023/10/08 06:15:11;;;;;;;4.20;3.45;;;;;;;;;;5067977;28;20202;-65
2023/10/08 06:17:56;;;;;;;3.08;2.80;;;;;;;;;;5063405;28;20207;-66
2023/10/08 06:20:26;;;;;;;5.93;3.58;;;;;;;;;;5067283;28;20684;-66
2023/10/08 06:22:58;;;;;;;4.35;3.30;;;;;;;;;;5067243;28;20265;-65
2023/10/08 06:25:27;;;;;;;3.72;2.78;;;;;;;;;;5067772;28;20286;-65
2023/10/08 06:27:56;;;;;;;4.22;3.25;;;;;;;;;;5066212;28;20554;-64
2023/10/08 06:30:24;;;;;;;6.32;3.70;;;;;;;;;;5067738;28;20215;-65
2023/10/08 06:32:53;;;;;;;3.25;2.95;;;;;;;;;;5068041;28;20565;-66
2023/10/08 06:35:25;;;;;;;6.40;3.47;;;;;;;;;;5055477;28;20231;-66
2023/10/08 06:37:54;;;;;;;4.93;3.00;;;;;;;;;;5062235;28;20207;-65
2023/10/08 06:43:14;;;;;;;4.95;3.58;;;;;;;;;;5066520;28;20234;-66
2023/10/08 06:45:41;;;;;;;5.28;3.53;;;;;;;;;;5061079;28;20292;-65
2023/10/08 06:48:09;;;;;;;4.65;3.67;;;;;;;;;;5061846;28;20206;-66
2023/10/08 06:50:36;;;;;;;3.28;2.97;;;;;;;;;;5067132;28;20588;-66
2023/10/08 06:53:07;;;;;;;3.90;2.70;;;;;;;;;;5066966;28;20227;-66
2023/10/08 06:55:35;;;;;;;6.70;3.05;;;;;;;;;;5067503;28;20206;-66
2023/10/08 06:58:05;;;;;;;6.40;3.22;;;;;;;;;;5066881;28;20203;-66
2023/10/08 07:00:41;;;;;;;8.07;3.28;;;;;;;;;;5066728;28;20553;-66
2023/10/08 07:03:10;;;;;;;5.45;2.83;;;;;;;;;;5061982;28;20375;-66
2023/10/08 07:05:40;;;;;;;3.40;3.17;;;;;;;;;;5066238;28;20210;-66
2023/10/08 07:08:07;;;;;;;4.95;3.40;;;;;;;;;;5063497;28;20207;-65
2023/10/08 07:10:35;;;;;;;3.53;3.10;;;;;;;;;;5060152;28;20206;-66
2023/10/08 07:13:03;;;;;;;6.32;3.08;;;;;;;;;;5068471;28;20203;-66
2023/10/08 07:15:30;;;;;;;6.53;3.70;;;;;;;;;;5085553;28;20275;-65
2023/10/08 07:18:08;;;;;;;4.45;3.20;;;;;;;;;;5077275;28;20242;-67
2023/10/08 07:20:38;;;;;;;5.22;3.30;;;;;;;;;;5067642;28;20203;-65
2023/10/08 07:23:09;;;;;;;3.80;3.28;;;;;;;;;;5067337;28;20644;-64
2023/10/08 07:25:38;;;;;;;5.95;3.58;;;;;;;;;;5067080;28;20233;-68
2023/10/08 07:28:06;;;;;;;4.00;3.60;;;;;;;;;;5065930;28;20203;-66
2023/10/08 07:30:39;;;;;;;4.35;3.10;;;;;;;;;;5067384;28;20614;-65
2023/10/08 07:33:17;;;;;;;4.07;2.80;;;;;;;;;;5047055;28;20215;-65
2023/10/08 07:35:51;;;;;;;4.20;2.53;;;;;;;;;;5059838;28;20203;-63
2023/10/08 07:38:18;;;;;;;7.47;3.03;;;;;;;;;;5066315;28;20564;-64
2023/10/08 07:40:45;;;;;;;6.90;3.45;;;;;;;;;;5066950;28;20747;-65
2023/10/08 07:43:13;;;;;;;5.53;3.08;;;;;;;;;;5067151;28;20272;-65
2023/10/08 07:45:43;;;;;;;3.63;3.33;;;;;;;;;;5066846;28;20288;-65
2023/10/08 07:48:14;;;;;;;4.57;3.42;;;;;;;;;;5067130;28;20226;-64
2023/10/08 07:50:43;;;;;;;8.90;3.70;;;;;;;;;;5066424;28;20593;-67
2023/10/08 07:53:17;;;;;;;6.28;3.45;;;;;;;;;;5066691;28;20735;-66
2023/10/08 07:55:45;;;;;;;4.88;3.15;;;;;;;;;;5066019;28;20190;-65
2023/10/08 07:58:14;;;;;;;3.20;3.00;;;;;;;;;;5065350;28;20205;-63
2023/10/08 08:00:41;;;;;;;5.55;3.47;;;;;;;;;;5061192;28;20290;-65
2023/10/08 08:03:08;;;;;;;3.72;3.28;;;;;;;;;;5061007;28;20394;-65
2023/10/08 08:05:40;;;;;;;9.27;3.20;;;;;;;;;;5056460;28;20241;-65
2023/10/08 08:08:08;;;;;;;4.22;3.42;;;;;;;;;;5063728;28;20225;-70
2023/10/08 08:10:36;;;;;;;4.95;3.25;;;;;;;;;;5064680;28;20691;-65
2023/10/08 08:13:05;;;;;;;14.07;3.05;;;;;;;;;;5063192;28;20206;-68
2023/10/08 08:15:34;;;;;;;3.55;3.10;;;;;;;;;;5063827;28;20265;-61
2023/10/08 08:18:01;;;;;;;5.90;3.35;;;;;;;;;;5064538;28;20211;-61
2023/10/08 08:20:38;;;;;;;14.02;3.17;;;;;;;;;;5064380;28;20213;-61
2023/10/08 08:23:07;;;;;;;5.05;3.30;;;;;;;;;;5064868;28;20226;-71
2023/10/08 08:25:45;;;;;;;15.10;4.90;;;;;;;;;;5062424;28;20238;-61
2023/10/08 08:28:16;;;;;;;5.13;2.90;;;;;;;;;;5065050;28;20211;-61
2023/10/08 08:30:46;;;;;;;7.05;3.28;;;;;;;;;;5069693;28;20207;-61
2023/10/08 08:33:21;;;;;;;7.63;3.10;;;;;;;;;;5069269;28;20688;-61
2023/10/08 08:35:48;;;;;;;4.20;2.88;;;;;;;;;;5067881;28;20239;-61
2023/10/08 08:38:17;;;;;;;4.93;3.22;;;;;;;;;;5069399;28;20222;-61
2023/10/08 08:40:44;;;;;;;4.55;3.00;;;;;;;;;;5069544;28;20207;-61
2023/10/08 08:43:12;;;;;;;3.38;2.95;;;;;;;;;;5069229;28;20237;-61
2023/10/08 08:45:40;;;;;;;3.42;2.92;;;;;;;;;;5070109;28;20239;-63
2023/10/08 08:48:08;;;;;;;3.20;2.90;;;;;;;;;;5069479;28;20207;-61
2023/10/08 08:50:37;;;;;;;5.05;3.17;;;;;;;;;;5069311;28;20214;-61
2023/10/08 08:53:04;;;;;;;7.38;3.00;;;;;;;;;;5061394;28;20226;-61
2023/10/08 08:55:33;;;;;;;4.75;2.92;;;;;;;;;;5068715;28;20230;-61
2023/10/08 08:58:01;;;;;;;6.13;2.53;;;;;;;;;;5069887;28;20706;-63
2023/10/08 09:00:30;;;;;;;3.17;2.92;;;;;;;;;;5069133;28;20199;-61
2023/10/08 09:02:57;;;;;;;2.72;2.53;;;;;;;;;;5069381;28;20199;-61
2023/10/08 09:05:25;;;;;;;5.10;3.25;;;;;;;;;;5069273;28;20597;-61
2023/10/08 09:07:57;;;;;;;2.47;2.28;;;;;;;;;;5061586;28;20198;-61
2023/10/08 09:10:27;;;;;;;3.33;2.67;;;;;;;;;;5068864;28;20211;-61
2023/10/08 09:12:58;;;;;;;4.15;2.97;;;;;;;;;;5069573;28;20211;-63
2023/10/08 09:15:25;;;;;;;5.53;2.67;;;;;;;;;;5067642;28;20207;-61
2023/10/08 09:17:53;;;;;;;3.05;2.75;;;;;;;;;;5069475;28;20207;-62
2023/10/08 09:20:21;;;;;;;3.75;2.88;;;;;;;;;;5069732;28;20206;-61
2023/10/08 09:22:48;;;;;;;4.63;2.55;;;;;;;;;;5069055;28;20315;-62
2023/10/08 09:25:24;;;;;;;4.15;2.90;;;;;;;;;;5069099;28;20250;-61
2023/10/08 09:27:53;;;;;;;3.53;2.47;;;;;;;;;;5069372;28;20249;-61
2023/10/08 09:30:21;;;;;;;3.38;2.83;;;;;;;;;;5069289;28;20269;-61
2023/10/08 09:32:49;;;;;;;3.70;2.53;;;;;;;;;;5068830;28;20203;-61
2023/10/08 09:35:17;;;;;;;3.30;2.50;;;;;;;;;;5069298;28;20231;-61
2023/10/08 09:37:45;;;;;;;2.40;2.20;;;;;;;;;;5067905;28;20214;-61
2023/10/08 09:40:20;;;;;;;3.70;2.38;;;;;;;;;;5068314;28;20235;-61
2023/10/08 09:42:48;;;;;;;3.15;2.65;;;;;;;;;;5068540;28;20222;-62
2023/10/08 09:45:15;;;;;;;3.85;2.85;;;;;;;;;;5068432;28;20227;-61
2023/10/08 09:47:44;;;;;;;4.53;2.50;;;;;;;;;;5068730;28;20211;-61
2023/10/08 09:50:12;;;;;;;3.90;2.50;;;;;;;;;;5068812;28;20664;-61
2023/10/08 09:52:44;;;;;;;3.38;2.60;;;;;;;;;;5068045;28;20233;-61
2023/10/08 09:55:11;;;;;;;3.15;2.83;;;;;;;;;;5067998;28;20202;-61
2023/10/08 09:57:38;;;;;;;5.68;2.28;;;;;;;;;;5067124;28;20210;-61
2023/10/08 10:00:08;;;;;;;3.83;2.78;;;;;;;;;;5067992;28;20226;-61
2023/10/08 10:02:35;;;;;;;7.32;2.45;;;;;;;;;;5066968;28;20791;-61
2023/10/08 10:05:06;;;;;;;3.17;2.53;;;;;;;;;;5067042;28;20230;-61
2023/10/08 10:07:40;;;;;;;3.90;2.67;;;;;;;;;;5061023;28;20229;-61
2023/10/08 10:10:13;;;;;;;3.97;2.40;;;;;;;;;;5068314;28;20297;-61
2023/10/08 10:12:43;;;;;;;7.03;4.47;;;;;;;;;;5070781;28;20207;-61
2023/10/08 10:15:10;;;;;;;2.95;2.72;;;;;;;;;;5068135;28;20195;-60
2023/10/08 10:17:37;;;;;;;3.22;2.97;;;;;;;;;;5068121;28;20559;-60
2023/10/08 10:20:13;;;;;;;19.33;9.88;;;;;;;;;;5067993;28;20685;-60
2023/10/08 10:22:42;;;;;;;8.93;3.03;;;;;;;;;;5068242;28;20660;-61
2023/10/08 10:25:17;;;;;;;4.85;2.88;;;;;;;;;;5066281;28;20223;-61
2023/10/08 10:28:04;;;;;;;4.47;2.97;;;;;;;;;;5067971;28;20289;-60
2023/10/08 10:30:32;;;;;;;5.05;2.70;;;;;;;;;;5067383;28;20242;-61
2023/10/08 10:33:01;;;;;;;3.03;2.63;;;;;;;;;;5065665;28;20229;-61
2023/10/08 10:35:31;;;;;;;2.85;2.65;;;;;;;;;;5063673;28;20290;-62
2023/10/08 10:38:03;;;;;;;2.75;2.42;;;;;;;;;;5071263;28;20278;-63
2023/10/08 10:40:39;;;;;;;3.63;2.75;;;;;;;;;;5067192;28;20840;-63
2023/10/08 10:43:07;;;;;;;3.78;3.00;;;;;;;;;;5067521;28;20234;-63
2023/10/08 10:45:40;;;;;;;3.80;2.60;;;;;;;;;;5067406;28;20656;-64
2023/10/08 10:48:20;;;;;;;3.28;3.05;;;;;;;;;;5066793;28;20730;-64
2023/10/08 10:51:08;;;;;;;9.32;4.00;;;;;;;;;;5066860;28;20206;-63
2023/10/08 10:53:44;;;;;;;7.03;3.70;;;;;;;;;;5066370;28;20230;-63
2023/10/08 10:56:18;;;;;;;7.80;3.45;;;;;;;;;;5055229;28;20757;-63
2023/10/08 10:58:44;;;;;;;3.20;2.63;;;;;;;;;;5065108;28;20575;-66
2023/10/08 11:01:23;;;;;;;10.40;3.03;;;;;;;;;;5065957;28;20227;-66
2023/10/08 11:03:51;;;;;;;4.43;3.08;;;;;;;;;;5066955;28;20270;-64
2023/10/08 11:06:22;;;;;;;5.07;3.17;;;;;;;;;;5047022;28;20580;-65
2023/10/08 11:08:53;;;;;;;7.38;3.00;;;;;;;;;;5058410;28;20302;-65
2023/10/08 11:11:23;;;;;;;5.53;3.03;;;;;;;;;;5066416;28;20247;-65
2023/10/08 11:13:54;;;;;;;4.53;3.13;;;;;;;;;;5047195;28;20216;-65
2023/10/08 11:16:24;;;;;;;6.75;3.08;;;;;;;;;;5059276;28;20213;-65
2023/10/08 11:18:57;;;;;;;3.97;2.67;;;;;;;;;;5066791;28;20222;-65
2023/10/08 11:21:31;;;;;;;5.13;2.97;;;;;;;;;;5067066;28;20210;-66
2023/10/08 11:24:01;;;;;;;6.47;3.10;;;;;;;;;;5066318;28;20722;-65
2023/10/08 11:26:35;;;;;;;4.68;2.75;;;;;;;;;;5066495;28;20230;-65
2023/10/08 11:29:05;;;;;;;3.45;2.85;;;;;;;;;;5066034;28;20487;-66
2023/10/08 11:31:39;;;;;;;4.97;3.10;;;;;;;;;;5054866;28;20237;-65
2023/10/08 11:34:13;;;;;;;5.57;3.30;;;;;;;;;;5066547;28;20211;-66
2023/10/08 11:36:55;;;;;;;5.53;3.22;;;;;;;;;;5067003;28;20203;-64
2023/10/08 11:39:30;;;;;;;8.02;2.83;;;;;;;;;;5066721;28;20206;-64
2023/10/08 11:42:06;;;;;;;6.63;3.00;;;;;;;;;;5066998;28;20589;-65
2023/10/08 11:44:35;;;;;;;7.82;2.92;;;;;;;;;;5065342;28;20230;-64
2023/10/08 11:47:11;;;;;;;4.93;2.88;;;;;;;;;;5064769;28;20290;-64
2023/10/08 11:49:46;;;;;;;10.48;3.10;;;;;;;;;;5066167;28;20293;-65
2023/10/08 11:52:16;;;;;;;5.30;3.00;;;;;;;;;;5066080;28;20202;-72
2023/10/08 11:54:43;;;;;;;6.60;3.45;;;;;;;;;;5066747;28;20234;-65
2023/10/08 11:57:11;;;;;;;5.35;3.67;;;;;;;;;;5066261;28;20669;-63
2023/10/08 11:59:39;;;;;;;3.05;2.42;;;;;;;;;;5066245;28;20205;-64
2023/10/08 12:02:06;;;;;;;9.50;3.67;;;;;;;;;;5070575;28;20685;-67
2023/10/08 12:04:33;;;;;;;6.72;4.20;;;;;;;;;;5070842;28;20214;-65
2023/10/08 12:07:06;;;;;;;6.43;2.85;;;;;;;;;;5068622;28;20225;-71
2023/10/08 12:09:37;;;;;;;4.32;3.20;;;;;;;;;;5066737;28;20207;-69
2023/10/08 12:12:09;;;;;;;6.20;4.10;;;;;;;;;;5068967;28;20206;-71
2023/10/08 12:14:37;;;;;;;5.18;3.17;;;;;;;;;;5068071;28;20770;-72
2023/10/08 12:17:11;;;;;;;6.53;3.05;;;;;;;;;;5055728;28;20199;-71
2023/10/08 12:19:40;;;;;;;10.93;6.07;;;;;;;;;;5066596;28;20696;-66
2023/10/08 12:22:08;;;;;;;12.13;5.93;;;;;;;;;;5070207;28;20210;-66
2023/10/08 12:24:38;;;;;;;13.32;5.05;;;;;;;;;;5069842;28;20701;-67
2023/10/08 12:27:05;;;;;;;7.63;3.92;;;;;;;;;;5067889;28;20230;-67
2023/10/08 12:29:32;;;;;;;15.25;5.40;;;;;;;;;;5069786;28;20724;-67
2023/10/08 12:32:00;;;;;;;6.80;3.13;;;;;;;;;;5070065;28;20215;-67
2023/10/08 12:34:29;;;;;;;6.20;3.40;;;;;;;;;;5069469;28;20207;-78
2023/10/08 12:36:56;;;;;;;6.10;3.05;;;;;;;;;;5068330;28;20217;-68
2023/10/08 12:39:28;;;;;;;14.32;4.22;;;;;;;;;;5068910;28;20788;-67
2023/10/08 12:42:04;;;;;;;6.25;3.47;;;;;;;;;;5068111;28;20219;-68
2023/10/08 12:44:33;;;;;;;5.40;3.33;;;;;;;;;;5058537;28;20207;-67
2023/10/08 12:47:01;;;;;;;9.40;3.50;;;;;;;;;;5065383;28;20634;-67
2023/10/08 12:49:33;;;;;;;8.00;3.60;;;;;;;;;;5064202;28;20920;-67
2023/10/08 12:52:02;;;;;;;7.75;3.33;;;;;;;;;;5065840;28;20214;-68
2023/10/08 12:54:33;;;;;;;6.55;3.90;;;;;;;;;;5068646;28;20245;-67
2023/10/08 12:57:02;;;;;;;8.52;3.35;;;;;;;;;;5068199;28;20203;-68
2023/10/08 12:59:30;;;;;;;8.57;3.72;;;;;;;;;;5067659;28;20336;-68
2023/10/08 13:01:57;;;;;;;6.13;3.50;;;;;;;;;;5066960;28;20210;-68
2023/10/08 13:04:27;;;;;;;12.38;3.63;;;;;;;;;;5065154;28;20311;-67
2023/10/08 13:06:56;;;;;;;4.28;3.00;;;;;;;;;;5068254;28;20221;-68
2023/10/08 13:09:24;;;;;;;7.22;3.10;;;;;;;;;;5067719;28;20282;-68
2023/10/08 13:11:51;;;;;;;7.88;3.10;;;;;;;;;;5065739;28;20199;-68
2023/10/08 13:14:22;;;;;;;8.23;3.78;;;;;;;;;;5068147;28;20210;-69
2023/10/08 13:16:53;;;;;;;10.68;3.72;;;;;;;;;;5067204;28;20211;-66
2023/10/08 13:19:22;;;;;;;6.22;3.10;;;;;;;;;;5067052;28;20211;-66
2023/10/08 13:21:52;;;;;;;6.80;3.08;;;;;;;;;;5068004;28;20203;-67
2023/10/08 13:24:19;;;;;;;7.05;3.28;;;;;;;;;;5067099;28;20211;-67
2023/10/08 13:26:47;;;;;;;6.18;3.13;;;;;;;;;;5067433;28;20241;-67
2023/10/08 13:29:14;;;;;;;4.65;3.20;;;;;;;;;;5071053;28;20203;-67
2023/10/08 13:31:43;;;;;;;6.43;3.30;;;;;;;;;;5076129;28;20214;-67
2023/10/08 13:34:12;;;;;;;11.88;3.60;;;;;;;;;;5068047;28;20211;-67
2023/10/08 13:36:39;;;;;;;6.78;2.95;;;;;;;;;;5068724;28;20249;-67
2023/10/08 13:39:09;;;;;;;7.60;3.08;;;;;;;;;;5068711;28;20264;-67
2023/10/08 13:41:37;;;;;;;3.83;2.75;;;;;;;;;;5062378;28;20223;-67
2023/10/08 13:44:05;;;;;;;8.15;3.00;;;;;;;;;;5066713;28;20215;-67
2023/10/08 13:46:36;;;;;;;9.80;3.35;;;;;;;;;;5069683;28;20982;-65
2023/10/08 13:49:05;;;;;;;4.72;3.45;;;;;;;;;;5075500;28;20296;-64
2023/10/08 13:51:34;;;;;;;5.45;3.47;;;;;;;;;;5071534;28;20211;-65
2023/10/08 13:54:06;;;;;;;9.75;2.92;;;;;;;;;;5067703;28;20199;-66
2023/10/08 13:56:33;;;;;;;7.13;3.22;;;;;;;;;;5070966;28;20254;-71
2023/10/08 13:59:11;;;;;;;6.95;3.20;;;;;;;;;;5067354;28;20649;-65
2023/10/08 14:01:40;;;;;;;9.02;3.38;;;;;;;;;;5068554;28;20203;-64
2023/10/08 14:04:09;;;;;;;7.68;3.90;;;;;;;;;;5066793;28;20654;-64
2023/10/08 14:06:36;;;;;;;5.40;3.20;;;;;;;;;;5068175;28;20439;-65
2023/10/08 14:09:07;;;;;;;4.63;3.55;;;;;;;;;;5067542;28;20199;-64
2023/10/08 14:11:34;;;;;;;4.93;3.35;;;;;;;;;;5073152;28;20254;-64
2023/10/08 14:14:07;;;;;;;6.57;3.35;;;;;;;;;;5067225;28;20207;-64
2023/10/08 14:16:34;;;;;;;6.95;3.65;;;;;;;;;;5066906;28;20203;-64
2023/10/08 14:19:04;;;;;;;5.25;3.03;;;;;;;;;;5067794;28;20206;-64
2023/10/08 14:21:38;;;;;;;5.55;2.97;;;;;;;;;;5067770;28;20423;-64
2023/10/08 14:24:20;;;;;;;6.93;3.20;;;;;;;;;;5061787;28;20252;-65
2023/10/08 14:26:52;;;;;;;7.15;3.05;;;;;;;;;;5063270;28;20226;-64
2023/10/08 14:29:20;;;;;;;7.00;3.40;;;;;;;;;;5064686;28;20892;-65
2023/10/08 14:31:49;;;;;;;5.18;3.35;;;;;;;;;;5064388;28;20207;-64
2023/10/08 14:42:53;;;;;;;4.68;3.60;;;;;;;;;;5062621;28;20617;-65
2023/10/08 14:43:01;;;;;;;4.55;2.85;;;;;;;;;;5087473;28;20222;-64
2023/10/08 14:45:31;;;;;;;11.93;3.40;;;;;;;;;;5065936;28;20239;-64
2023/10/08 14:47:58;;;;;;;5.85;3.30;;;;;;;;;;5066593;28;20363;-64
2023/10/08 14:50:27;;;;;;;3.67;3.22;;;;;;;;;;5069106;28;20325;-65
2023/10/08 14:52:56;;;;;;;5.55;3.20;;;;;;;;;;5064805;28;20234;-64
2023/10/08 14:55:23;;;;;;;6.28;3.83;;;;;;;;;;5065509;28;20585;-64
2023/10/08 14:57:52;;;;;;;5.35;3.05;;;;;;;;;;5063581;28;20230;-64
2023/10/08 15:00:24;;;;;;;5.53;2.70;;;;;;;;;;5064191;28;20293;-65
2023/10/08 15:02:51;;;;;;;7.60;3.70;;;;;;;;;;5064949;28;20277;-64
2023/10/08 15:05:18;;;;;;;5.90;3.58;;;;;;;;;;5063160;28;20248;-65
2023/10/08 15:07:45;;;;;;;7.88;3.10;;;;;;;;;;5065851;28;20227;-64
2023/10/08 15:10:14;;;;;;;4.05;3.10;;;;;;;;;;5065069;28;20221;-64
2023/10/08 15:12:41;;;;;;;3.83;2.83;;;;;;;;;;5062041;28;20246;-64
2023/10/08 15:15:13;;;;;;;7.30;3.25;;;;;;;;;;5062197;28;20366;-64
2023/10/08 15:17:41;;;;;;;5.60;2.90;;;;;;;;;;5059909;28;20206;-63
2023/10/08 15:20:11;;;;;;;4.03;2.60;;;;;;;;;;5063870;28;20211;-62